sensor_id;sensor_type;location;lat;lon;timestamp;temperature;humidity
26579;DHT22;14227;47.674;19.320;2023-03-17T00:00:34;12.70;41.50
26579;DHT22;14227;47.674;19.320;2023-03-17T00:03:00;12.70;41.50
26579;DHT22;14227;47.674;19.320;2023-03-17T00:05:30;12.70;41.50
26579;DHT22;14227;47.674;19.320;2023-03-17T00:08:03;12.70;41.70
26579;DHT22;14227;47.674;19.320;2023-03-17T00:10:31;12.70;41.70
26579;DHT22;14227;47.674;19.320;2023-03-17T00:12:59;12.60;42.20
26579;DHT22;14227;47.674;19.320;2023-03-17T00:15:26;12.60;41.50
26579;DHT22;14227;47.674;19.320;2023-03-17T00:17:54;12.60;41.50
26579;DHT22;14227;47.674;19.320;2023-03-17T00:20:26;12.60;41.50
26579;DHT22;14227;47.674;19.320;2023-03-17T00:23:02;12.60;41.60
26579;DHT22;14227;47.674;19.320;2023-03-17T00:25:33;12.60;41.50
26579;DHT22;14227;47.674;19.320;2023-03-17T00:28:00;12.60;41.60
26579;DHT22;14227;47.674;19.320;2023-03-17T00:30:27;12.60;41.60
26579;DHT22;14227;47.674;19.320;2023-03-17T00:32:56;12.60;41.70
26579;DHT22;14227;47.674;19.320;2023-03-17T00:35:27;12.60;41.70
26579;DHT22;14227;47.674;19.320;2023-03-17T00:37:55;12.60;41.60
26579;DHT22;14227;47.674;19.320;2023-03-17T00:40:28;12.50;41.60
26579;DHT22;14227;47.674;19.320;2023-03-17T00:42:56;12.50;41.60
26579;DHT22;14227;47.674;19.320;2023-03-17T00:45:24;12.50;41.60
26579;DHT22;14227;47.674;19.320;2023-03-17T00:47:53;12.50;41.50
26579;DHT22;14227;47.674;19.320;2023-03-17T00:50:24;12.50;41.60
26579;DHT22;14227;47.674;19.320;2023-03-17T00:52:55;12.50;41.60
26579;DHT22;14227;47.674;19.320;2023-03-17T00:55:21;12.50;41.60
26579;DHT22;14227;47.674;19.320;2023-03-17T00:57:48;12.40;41.70
26579;DHT22;14227;47.674;19.320;2023-03-17T01:00:23;12.50;41.80
26579;DHT22;14227;47.674;19.320;2023-03-17T01:02:54;12.50;41.70
26579;DHT22;14227;47.674;19.320;2023-03-17T01:05:24;12.50;41.70
26579;DHT22;14227;47.674;19.320;2023-03-17T01:07:53;12.40;41.50
26579;DHT22;14227;47.674;19.320;2023-03-17T01:10:24;12.40;41.60
26579;DHT22;14227;47.674;19.320;2023-03-17T01:12:52;12.40;41.50
26579;DHT22;14227;47.674;19.320;2023-03-17T01:15:18;12.40;41.60
26579;DHT22;14227;47.674;19.320;2023-03-17T01:17:44;12.40;41.50
26579;DHT22;14227;47.674;19.320;2023-03-17T01:20:21;12.40;41.60
26579;DHT22;14227;47.674;19.320;2023-03-17T01:22:49;12.40;41.60
26579;DHT22;14227;47.674;19.320;2023-03-17T01:25:18;12.40;41.60
26579;DHT22;14227;47.674;19.320;2023-03-17T01:27:47;12.40;41.50
26579;DHT22;14227;47.674;19.320;2023-03-17T01:30:23;12.40;41.60
26579;DHT22;14227;47.674;19.320;2023-03-17T01:32:49;12.30;41.40
26579;DHT22;14227;47.674;19.320;2023-03-17T01:35:16;12.30;41.60
26579;DHT22;14227;47.674;19.320;2023-03-17T01:37:43;12.30;41.50
26579;DHT22;14227;47.674;19.320;2023-03-17T01:40:25;12.30;41.50
26579;DHT22;14227;47.674;19.320;2023-03-17T01:48:40;12.30;41.50
26579;DHT22;14227;47.674;19.320;2023-03-17T01:51:09;12.30;41.50
26579;DHT22;14227;47.674;19.320;2023-03-17T01:53:36;12.20;41.40
26579;DHT22;14227;47.674;19.320;2023-03-17T01:56:03;12.20;41.50
26579;DHT22;14227;47.674;19.320;2023-03-17T01:58:30;12.20;41.50
26579;DHT22;14227;47.674;19.320;2023-03-17T02:00:56;12.20;41.60
26579;DHT22;14227;47.674;19.320;2023-03-17T02:03:23;12.20;41.60
26579;DHT22;14227;47.674;19.320;2023-03-17T02:05:50;12.20;41.60
26579;DHT22;14227;47.674;19.320;2023-03-17T02:08:16;12.20;41.70
26579;DHT22;14227;47.674;19.320;2023-03-17T02:10:43;12.20;41.70
26579;DHT22;14227;47.674;19.320;2023-03-17T02:13:11;12.10;41.60
26579;DHT22;14227;47.674;19.320;2023-03-17T02:18:08;12.20;41.70
26579;DHT22;14227;47.674;19.320;2023-03-17T02:23:02;12.10;41.60
26579;DHT22;14227;47.674;19.320;2023-03-17T02:25:29;12.10;41.60
26579;DHT22;14227;47.674;19.320;2023-03-17T02:28:01;12.10;42.20
26579;DHT22;14227;47.674;19.320;2023-03-17T02:30:31;12.10;41.70
26579;DHT22;14227;47.674;19.320;2023-03-17T02:32:58;12.10;41.60
26579;DHT22;14227;47.674;19.320;2023-03-17T02:35:24;12.10;41.70
26579;DHT22;14227;47.674;19.320;2023-03-17T02:37:49;12.00;41.40
26579;DHT22;14227;47.674;19.320;2023-03-17T02:40:15;12.00;41.50
26579;DHT22;14227;47.674;19.320;2023-03-17T02:42:42;12.00;41.50
26579;DHT22;14227;47.674;19.320;2023-03-17T02:45:10;12.00;41.50
26579;DHT22;14227;47.674;19.320;2023-03-17T02:47:36;12.00;41.60
26579;DHT22;14227;47.674;19.320;2023-03-17T02:50:03;12.00;41.60
26579;DHT22;14227;47.674;19.320;2023-03-17T02:52:29;12.00;41.70
26579;DHT22;14227;47.674;19.320;2023-03-17T02:54:56;12.00;41.80
26579;DHT22;14227;47.674;19.320;2023-03-17T02:57:22;12.00;41.60
26579;DHT22;14227;47.674;19.320;2023-03-17T02:59:48;12.00;41.70
26579;DHT22;14227;47.674;19.320;2023-03-17T03:02:17;11.90;41.60
26579;DHT22;14227;47.674;19.320;2023-03-17T03:04:42;11.90;41.70
26579;DHT22;14227;47.674;19.320;2023-03-17T03:07:09;11.90;41.50
26579;DHT22;14227;47.674;19.320;2023-03-17T03:09:35;11.90;41.50
26579;DHT22;14227;47.674;19.320;2023-03-17T03:12:02;11.90;41.50
26579;DHT22;14227;47.674;19.320;2023-03-17T03:14:27;11.90;41.50
26579;DHT22;14227;47.674;19.320;2023-03-17T03:16:53;11.90;41.50
26579;DHT22;14227;47.674;19.320;2023-03-17T03:19:19;11.90;41.50
26579;DHT22;14227;47.674;19.320;2023-03-17T03:21:45;11.90;41.50
26579;DHT22;14227;47.674;19.320;2023-03-17T03:24:11;11.90;41.50
26579;DHT22;14227;47.674;19.320;2023-03-17T03:26:37;11.90;41.60
26579;DHT22;14227;47.674;19.320;2023-03-17T03:29:03;11.90;41.50
26579;DHT22;14227;47.674;19.320;2023-03-17T03:31:29;11.80;41.50
26579;DHT22;14227;47.674;19.320;2023-03-17T03:33:56;11.80;41.60
26579;DHT22;14227;47.674;19.320;2023-03-17T03:36:21;11.80;41.50
26579;DHT22;14227;47.674;19.320;2023-03-17T03:38:47;11.80;41.50
26579;DHT22;14227;47.674;19.320;2023-03-17T03:41:13;11.80;41.50
26579;DHT22;14227;47.674;19.320;2023-03-17T03:43:39;11.80;41.50
26579;DHT22;14227;47.674;19.320;2023-03-17T03:46:05;11.80;41.50
26579;DHT22;14227;47.674;19.320;2023-03-17T03:48:31;11.80;41.50
26579;DHT22;14227;47.674;19.320;2023-03-17T03:50:58;11.80;41.50
26579;DHT22;14227;47.674;19.320;2023-03-17T03:53:24;11.70;41.50
26579;DHT22;14227;47.674;19.320;2023-03-17T03:55:51;11.70;41.60
26579;DHT22;14227;47.674;19.320;2023-03-17T03:58:17;11.70;41.60
26579;DHT22;14227;47.674;19.320;2023-03-17T04:00:42;11.70;41.60
26579;DHT22;14227;47.674;19.320;2023-03-17T04:03:08;11.70;41.50
26579;DHT22;14227;47.674;19.320;2023-03-17T04:05:34;11.70;41.60
26579;DHT22;14227;47.674;19.320;2023-03-17T04:07:59;11.70;41.70
26579;DHT22;14227;47.674;19.320;2023-03-17T04:10:25;11.70;41.70
26579;DHT22;14227;47.674;19.320;2023-03-17T04:12:51;11.70;41.60
26579;DHT22;14227;47.674;19.320;2023-03-17T04:15:19;11.70;41.60
26579;DHT22;14227;47.674;19.320;2023-03-17T04:17:46;11.70;41.60
26579;DHT22;14227;47.674;19.320;2023-03-17T04:20:12;11.70;41.70
26579;DHT22;14227;47.674;19.320;2023-03-17T04:22:39;11.60;41.50
26579;DHT22;14227;47.674;19.320;2023-03-17T04:25:10;11.60;41.50
26579;DHT22;14227;47.674;19.320;2023-03-17T04:27:36;11.60;41.50
26579;DHT22;14227;47.674;19.320;2023-03-17T04:30:03;11.60;41.50
26579;DHT22;14227;47.674;19.320;2023-03-17T04:32:29;11.60;41.50
26579;DHT22;14227;47.674;19.320;2023-03-17T04:34:55;11.60;41.50
26579;DHT22;14227;47.674;19.320;2023-03-17T04:37:24;11.60;41.60
26579;DHT22;14227;47.674;19.320;2023-03-17T04:39:50;11.60;41.50
26579;DHT22;14227;47.674;19.320;2023-03-17T04:42:17;11.60;41.50
26579;DHT22;14227;47.674;19.320;2023-03-17T04:44:43;11.60;41.50
26579;DHT22;14227;47.674;19.320;2023-03-17T04:47:11;11.60;41.50
26579;DHT22;14227;47.674;19.320;2023-03-17T04:49:37;11.60;41.50
26579;DHT22;14227;47.674;19.320;2023-03-17T04:52:02;11.50;41.50
26579;DHT22;14227;47.674;19.320;2023-03-17T04:54:28;11.50;41.40
26579;DHT22;14227;47.674;19.320;2023-03-17T04:56:54;11.50;41.60
26579;DHT22;14227;47.674;19.320;2023-03-17T04:59:20;11.50;41.50
26579;DHT22;14227;47.674;19.320;2023-03-17T05:01:46;11.50;41.60
26579;DHT22;14227;47.674;19.320;2023-03-17T05:04:12;11.50;41.60
26579;DHT22;14227;47.674;19.320;2023-03-17T05:06:38;11.50;41.60
26579;DHT22;14227;47.674;19.320;2023-03-17T05:09:10;11.50;41.70
26579;DHT22;14227;47.674;19.320;2023-03-17T05:11:36;11.50;41.60
26579;DHT22;14227;47.674;19.320;2023-03-17T05:14:01;11.40;41.50
26579;DHT22;14227;47.674;19.320;2023-03-17T05:16:27;11.40;41.60
26579;DHT22;14227;47.674;19.320;2023-03-17T05:18:53;11.40;41.60
26579;DHT22;14227;47.674;19.320;2023-03-17T05:21:19;11.40;41.50
26579;DHT22;14227;47.674;19.320;2023-03-17T05:23:47;11.40;41.50
26579;DHT22;14227;47.674;19.320;2023-03-17T05:26:16;11.40;41.60
26579;DHT22;14227;47.674;19.320;2023-03-17T05:28:43;11.40;41.60
26579;DHT22;14227;47.674;19.320;2023-03-17T05:31:08;11.40;41.70
26579;DHT22;14227;47.674;19.320;2023-03-17T05:33:34;11.40;41.70
26579;DHT22;14227;47.674;19.320;2023-03-17T05:36:03;11.40;41.70
26579;DHT22;14227;47.674;19.320;2023-03-17T05:38:31;11.30;41.70
26579;DHT22;14227;47.674;19.320;2023-03-17T05:40:56;11.30;41.70
26579;DHT22;14227;47.674;19.320;2023-03-17T05:43:22;11.30;41.70
26579;DHT22;14227;47.674;19.320;2023-03-17T05:45:56;11.30;41.70
26579;DHT22;14227;47.674;19.320;2023-03-17T05:48:24;11.30;40.60
26579;DHT22;14227;47.674;19.320;2023-03-17T05:50:52;11.30;38.40
26579;DHT22;14227;47.674;19.320;2023-03-17T05:53:27;11.30;36.50
26579;DHT22;14227;47.674;19.320;2023-03-17T05:55:56;11.30;35.40
26579;DHT22;14227;47.674;19.320;2023-03-17T05:58:39;11.30;34.60
26579;DHT22;14227;47.674;19.320;2023-03-17T06:01:08;11.20;33.40
26579;DHT22;14227;47.674;19.320;2023-03-17T06:03:34;11.20;33.10
26579;DHT22;14227;47.674;19.320;2023-03-17T06:06:05;11.20;32.10
26579;DHT22;14227;47.674;19.320;2023-03-17T06:08:31;11.20;31.30
26579;DHT22;14227;47.674;19.320;2023-03-17T06:11:00;11.10;30.70
26579;DHT22;14227;47.674;19.320;2023-03-17T06:13:30;11.10;30.40
26579;DHT22;14227;47.674;19.320;2023-03-17T06:15:58;11.00;30.00
26579;DHT22;14227;47.674;19.320;2023-03-17T06:18:24;11.00;29.80
26579;DHT22;14227;47.674;19.320;2023-03-17T06:20:50;11.00;29.70
26579;DHT22;14227;47.674;19.320;2023-03-17T06:23:16;10.90;29.50
26579;DHT22;14227;47.674;19.320;2023-03-17T06:25:43;10.90;29.50
26579;DHT22;14227;47.674;19.320;2023-03-17T06:31:31;10.80;29.40
26579;DHT22;14227;47.674;19.320;2023-03-17T06:33:56;10.80;29.20
26579;DHT22;14227;47.674;19.320;2023-03-17T06:36:23;10.70;28.90
26579;DHT22;14227;47.674;19.320;2023-03-17T06:38:49;10.70;28.80
26579;DHT22;14227;47.674;19.320;2023-03-17T06:41:50;10.60;28.70
26579;DHT22;14227;47.674;19.320;2023-03-17T06:44:15;10.50;28.50
26579;DHT22;14227;47.674;19.320;2023-03-17T06:46:43;10.60;28.90
26579;DHT22;14227;47.674;19.320;2023-03-17T06:49:22;10.50;28.80
26579;DHT22;14227;47.674;19.320;2023-03-17T06:51:48;10.50;29.00
26579;DHT22;14227;47.674;19.320;2023-03-17T06:54:14;10.50;29.20
26579;DHT22;14227;47.674;19.320;2023-03-17T07:00:38;10.40;29.50
26579;DHT22;14227;47.674;19.320;2023-03-17T07:03:04;10.30;29.80
26579;DHT22;14227;47.674;19.320;2023-03-17T07:09:10;10.30;28.80
26579;DHT22;14227;47.674;19.320;2023-03-17T07:11:36;10.30;29.40
26579;DHT22;14227;47.674;19.320;2023-03-17T07:14:01;10.30;30.00
26579;DHT22;14227;47.674;19.320;2023-03-17T07:16:27;10.30;30.90
